Terre Haute, IN (47805)

11:26 AM EDT on May 20, 2018 (GMT -0400)
North Vigo County Area | | Change Station

Elev 515 ft 39.56 °N, 87.37 °W | Updated 6 seconds ago

Partly Cloudy
Partly Cloudy
72.3 °F
Feels Like 73 °F
N
0.4
Wind Variable Wind from South
Gusts 1.1 mph

Today
High -- | Low -- °F
--% Chance of Precip.
Yesterday
High -- | Low -- °F
Precip. -- in
Pressure 30.12 in
Visibility 10.0 miles
Clouds Few 9500 ft
Heat Index 73 °F
Dew Point 65 °F
Humidity 77%
Rainfall 0.00 in
Snow Depth Not available.
6:31 AM 9:01 PM
Waxing Crescent, 33% visible
METAR KHUF 201453Z 27010KT 10SM FEW095 25/18 A3012 RMK AO2 SLP197 T02500178 53017
Pressure 30.12 in
Visibility 10.0 miles
Clouds Few 9500 ft
Heat Index 73 °F
Dew Point 65 °F
Humidity 77%
Rainfall 0.00 in
Snow Depth Not available.
6:31 AM 9:01 PM
Waxing Crescent, 33% visible
METAR KHUF 201453Z 27010KT 10SM FEW095 25/18 A3012 RMK AO2 SLP197 T02500178 53017

Get Severe Weather Alerts

Thanks for signing up!

Be on the lookout for a verification email in your inbox.

You'll start receiving the daily forecast at 6 AM.

×

10-Day Weather Forecast

Almanac

Astronomy

May. 20, 2018 Rise Set
Actual Time
Civil Twilight
Nautical Twilight
Astronomical Twilight
Moon
Length of Visible Light
Length of Day
Tomorrow will be .
, % of the Moon is Illuminated

Today's Extremes

State Highs State Lows

Community

WunderPhotos

Category 6

Welcome to Category 6. This is the collective home for Weather Underground's featured writeups by Dr. Jeff Masters (right), Bob Henson (left), Chris Burt, and other regular contributors.

Nearby

Air Quality

  Air Quality AQ Index Pollutant
Not available.

Snow Depth

Station Depth Elevation

Earthquake Activity

City Distance Mag. Time & Date
Minimum magnitude displayed is 2.5.

Coastal Water Temperatures

Place Temperature

Stations

Nearby Weather Stations

Station Location Temp. Windchill Dew Point Humidity Wind Precip. Elev Updated Type
                   

Watches & Warnings

There are currently no watches in effect.